createdAt,value
2023-03-06T00:00:19.400Z,3.42
2023-03-06T00:02:45.966Z,3.80
2023-03-06T00:05:14.459Z,2.85
2023-03-06T00:07:41.232Z,3.78
2023-03-06T00:10:08.634Z,3.72
2023-03-06T00:12:35.199Z,2.58
2023-03-06T00:15:02.643Z,3.33
2023-03-06T00:17:30.568Z,3.65
2023-03-06T00:19:57.294Z,3.58
2023-03-06T00:22:23.761Z,3.92
2023-03-06T00:24:53.492Z,4.60
2023-03-06T00:27:20.832Z,3.65
2023-03-06T00:29:50.494Z,3.97
2023-03-06T00:32:17.029Z,3.90
2023-03-06T00:34:43.556Z,3.60
2023-03-06T00:37:10.057Z,3.75
2023-03-06T00:39:37.022Z,4.38
2023-03-06T00:42:03.638Z,4.20
2023-03-06T00:44:30.109Z,4.28
2023-03-06T00:46:56.592Z,4.80
2023-03-06T00:49:23.103Z,2.92
2023-03-06T00:51:49.586Z,5.00
2023-03-06T00:54:16.153Z,4.43
2023-03-06T00:56:42.625Z,4.90
2023-03-06T00:59:09.406Z,5.35
2023-03-06T01:01:35.970Z,4.72
2023-03-06T01:04:02.861Z,4.90
2023-03-06T01:06:29.437Z,6.60
2023-03-06T01:08:55.925Z,5.63
2023-03-06T01:11:22.623Z,5.63
2023-03-06T01:13:49.244Z,4.38
2023-03-06T01:16:18.997Z,6.25
2023-03-06T01:18:46.134Z,4.97
2023-03-06T01:21:13.871Z,5.22
2023-03-06T01:23:40.570Z,5.18
2023-03-06T01:26:07.808Z,6.78
2023-03-06T01:28:35.137Z,6.55
2023-03-06T01:31:02.078Z,7.13
2023-03-06T01:33:28.616Z,6.45
2023-03-06T01:35:55.139Z,6.80
2023-03-06T01:38:22.019Z,7.90
2023-03-06T01:40:48.529Z,7.93
2023-03-06T01:43:24.070Z,7.05
2023-03-06T01:45:50.583Z,6.88
2023-03-06T01:48:20.539Z,7.10
2023-03-06T01:50:47.570Z,7.22
2023-03-06T01:53:15.534Z,7.93
2023-03-06T01:55:42.113Z,7.82
2023-03-06T01:58:15.264Z,7.65
2023-03-06T02:00:41.809Z,5.95
2023-03-06T02:03:13.159Z,7.00
2023-03-06T02:05:41.109Z,7.30
2023-03-06T02:08:11.257Z,8.10
2023-03-06T02:10:37.903Z,6.93
2023-03-06T02:13:04.774Z,7.25
2023-03-06T02:15:31.372Z,7.15
2023-03-06T02:18:00.445Z,7.22
2023-03-06T02:20:34.231Z,7.03
2023-03-06T02:23:13.313Z,7.13
2023-03-06T02:25:48.569Z,7.85
2023-03-06T02:28:21.590Z,7.07
2023-03-06T02:30:50.871Z,7.60
2023-03-06T02:33:23.912Z,7.60
2023-03-06T02:35:52.824Z,5.93
2023-03-06T02:38:22.123Z,6.88
2023-03-06T02:40:51.337Z,8.27
2023-03-06T02:43:23.164Z,7.60
2023-03-06T02:45:51.693Z,6.70
2023-03-06T02:48:19.364Z,6.78
2023-03-06T02:50:47.574Z,8.75
2023-03-06T02:53:16.236Z,7.07
2023-03-06T02:55:43.242Z,7.18
2023-03-06T02:58:09.827Z,7.80
2023-03-06T03:00:36.634Z,7.93
2023-03-06T03:03:03.942Z,7.60
2023-03-06T03:05:30.688Z,8.30
2023-03-06T03:07:57.215Z,7.07
2023-03-06T03:10:24.527Z,8.23
2023-03-06T03:12:51.285Z,9.80
2023-03-06T03:15:18.073Z,7.57
2023-03-06T03:17:44.637Z,8.93
2023-03-06T03:20:14.278Z,7.85
2023-03-06T03:22:40.835Z,7.05
2023-03-06T03:25:08.279Z,6.53
2023-03-06T03:27:34.822Z,7.47
2023-03-06T03:30:01.339Z,6.90
2023-03-06T03:32:27.823Z,6.75
2023-03-06T03:34:55.920Z,8.15
2023-03-06T03:37:22.754Z,7.45
2023-03-06T03:39:49.429Z,7.68
2023-03-06T03:42:15.960Z,7.43
2023-03-06T03:44:42.533Z,6.75
2023-03-06T03:47:09.003Z,7.90
2023-03-06T03:49:35.498Z,6.90
2023-03-06T03:52:01.986Z,7.93
2023-03-06T03:54:28.895Z,7.60
2023-03-06T03:56:55.696Z,7.63
2023-03-06T03:59:23.013Z,5.60
2023-03-06T04:01:49.669Z,7.68
2023-03-06T04:04:16.462Z,8.40
2023-03-06T04:06:42.928Z,8.43
2023-03-06T04:09:09.957Z,7.15
2023-03-06T04:11:36.539Z,7.53
2023-03-06T04:14:03.448Z,6.32
2023-03-06T04:16:29.974Z,7.30
2023-03-06T04:18:56.539Z,7.38
2023-03-06T04:21:23.069Z,7.07
2023-03-06T04:23:49.571Z,7.65
2023-03-06T04:26:16.048Z,6.38
2023-03-06T04:28:42.548Z,5.85
2023-03-06T04:31:10.616Z,8.45
2023-03-06T04:33:37.197Z,7.28
2023-03-06T04:36:04.018Z,4.78
2023-03-06T04:38:30.688Z,6.38
2023-03-06T04:40:57.235Z,7.03
2023-03-06T04:43:23.855Z,7.35
2023-03-06T04:45:50.385Z,7.43
2023-03-06T04:48:18.351Z,7.30
2023-03-06T04:50:45.338Z,6.63
2023-03-06T04:53:11.799Z,8.00
2023-03-06T04:55:38.537Z,6.28
2023-03-06T04:58:05.017Z,6.57
2023-03-06T05:00:31.796Z,7.18
2023-03-06T05:03:00.615Z,6.50
2023-03-06T05:05:28.152Z,7.90
2023-03-06T05:07:55.061Z,6.72
2023-03-06T05:10:22.018Z,7.00
2023-03-06T05:12:48.752Z,7.18
2023-03-06T05:15:16.674Z,4.78
2023-03-06T05:17:43.583Z,7.43
2023-03-06T05:20:11.615Z,6.70
2023-03-06T05:22:38.169Z,6.10
2023-03-06T05:25:05.354Z,8.00
2023-03-06T05:27:32.598Z,5.60
2023-03-06T05:29:59.458Z,7.72
2023-03-06T05:32:26.358Z,7.07
2023-03-06T05:34:52.917Z,7.10
2023-03-06T05:37:19.442Z,6.68
2023-03-06T05:39:46.246Z,7.63
2023-03-06T05:42:12.792Z,6.43
2023-03-06T05:44:39.709Z,8.07
2023-03-06T05:47:06.271Z,7.68
2023-03-06T05:49:34.912Z,7.32
2023-03-06T05:52:04.301Z,7.78
2023-03-06T05:54:36.170Z,6.65
2023-03-06T05:57:04.892Z,7.85
2023-03-06T05:59:33.046Z,7.68
2023-03-06T06:02:01.345Z,8.32
2023-03-06T06:04:28.449Z,7.68
2023-03-06T06:06:59.832Z,7.13
2023-03-06T06:09:27.126Z,6.03
2023-03-06T06:11:56.197Z,6.53
2023-03-06T06:14:23.273Z,6.55
2023-03-06T06:16:49.840Z,7.70
2023-03-06T06:19:20.240Z,7.25
2023-03-06T06:21:48.787Z,7.15
2023-03-06T06:24:16.813Z,7.97
2023-03-06T06:26:43.831Z,7.10
2023-03-06T06:29:11.301Z,7.28
2023-03-06T06:32:06.312Z,7.90
2023-03-06T06:34:32.862Z,6.80
2023-03-06T06:36:59.476Z,8.88
2023-03-06T06:39:26.033Z,6.70
2023-03-06T06:42:05.909Z,7.68
2023-03-06T06:44:39.323Z,9.32
2023-03-06T06:47:24.022Z,6.68
2023-03-06T06:49:55.598Z,8.27
2023-03-06T06:52:23.527Z,9.82
2023-03-06T06:54:50.177Z,8.32
2023-03-06T06:57:17.501Z,7.35
2023-03-06T06:59:44.100Z,9.70
2023-03-06T07:02:15.942Z,8.48
2023-03-06T07:04:56.541Z,8.70
2023-03-06T07:07:27.579Z,7.88
2023-03-06T07:09:55.203Z,9.68
2023-03-06T07:12:21.728Z,7.40
2023-03-06T07:14:48.491Z,7.75
2023-03-06T07:17:15.006Z,7.90
2023-03-06T07:19:41.532Z,8.18
2023-03-06T07:22:08.293Z,9.23
2023-03-06T07:24:35.036Z,8.77
2023-03-06T07:27:01.554Z,7.40
2023-03-06T07:29:28.120Z,6.85
2023-03-06T07:31:54.658Z,6.53
2023-03-06T07:34:21.213Z,9.55
2023-03-06T07:36:47.692Z,7.85
2023-03-06T07:39:14.157Z,6.90
2023-03-06T07:41:40.633Z,6.80
2023-03-06T07:44:07.194Z,7.30
2023-03-06T07:46:34.159Z,6.75
2023-03-06T07:49:00.773Z,8.10
2023-03-06T07:51:27.270Z,7.53
2023-03-06T07:53:53.889Z,7.38
2023-03-06T07:56:20.570Z,7.15
2023-03-06T07:58:48.000Z,6.43
2023-03-06T08:01:19.672Z,7.82
2023-03-06T08:03:47.188Z,7.18
2023-03-06T08:06:19.417Z,7.40
2023-03-06T08:08:47.422Z,8.15
2023-03-06T08:11:16.686Z,8.55
2023-03-06T08:13:44.385Z,8.18
2023-03-06T08:16:11.238Z,8.55
2023-03-06T08:18:39.947Z,9.00
2023-03-06T08:21:11.598Z,7.95
2023-03-06T08:23:39.137Z,9.70
2023-03-06T08:26:08.450Z,10.18
2023-03-06T08:31:24.401Z,10.05
2023-03-06T08:33:50.886Z,11.50
2023-03-06T08:36:17.422Z,9.05
2023-03-06T08:38:44.021Z,11.40
2023-03-06T08:41:10.563Z,12.45
2023-03-06T08:43:37.284Z,8.50
2023-03-06T08:46:04.041Z,9.75
2023-03-06T08:48:30.753Z,10.82
2023-03-06T08:50:57.311Z,11.70
2023-03-06T08:53:40.474Z,11.98
2023-03-06T08:56:14.859Z,10.93
2023-03-06T08:58:41.342Z,11.20
2023-03-06T09:01:15.720Z,11.68
2023-03-06T09:03:42.831Z,7.95
2023-03-06T09:06:09.380Z,8.40
2023-03-06T09:08:35.936Z,6.68
2023-03-06T09:11:02.603Z,10.43
2023-03-06T09:13:29.153Z,9.07
2023-03-06T09:15:55.808Z,10.77
2023-03-06T09:18:22.469Z,11.25
2023-03-06T09:20:49.034Z,10.95
2023-03-06T09:23:15.589Z,11.18
2023-03-06T09:25:42.270Z,11.07
2023-03-06T09:28:11.605Z,11.13
2023-03-06T09:30:40.642Z,11.32
2023-03-06T09:33:07.838Z,9.38
2023-03-06T09:35:34.440Z,11.30
2023-03-06T09:38:01.008Z,12.35
2023-03-06T09:41:06.202Z,11.65
2023-03-06T09:43:43.469Z,11.73
2023-03-06T09:46:31.007Z,11.30
2023-03-06T09:49:10.542Z,10.63
2023-03-06T09:52:03.264Z,10.77
2023-03-06T09:54:38.391Z,10.23
2023-03-06T09:57:15.190Z,6.82
2023-03-06T09:59:45.234Z,9.20
2023-03-06T10:02:22.869Z,8.45
2023-03-06T10:04:54.687Z,10.93
2023-03-06T10:07:27.565Z,10.93
2023-03-06T10:09:59.872Z,10.63
2023-03-06T10:12:36.077Z,9.38
2023-03-06T10:15:17.990Z,8.85
2023-03-06T10:17:45.223Z,10.07
2023-03-06T10:20:23.871Z,9.95
2023-03-06T10:23:12.257Z,9.20
2023-03-06T10:25:51.366Z,9.32
2023-03-06T10:28:22.577Z,9.50
2023-03-06T10:31:02.615Z,9.98
2023-03-06T10:33:54.172Z,8.70
2023-03-06T10:36:23.394Z,9.93
2023-03-06T10:41:31.741Z,7.70
2023-03-06T10:44:01.031Z,7.55
2023-03-06T10:46:29.777Z,8.15
2023-03-06T10:49:28.456Z,5.05
2023-03-06T10:52:10.272Z,8.13
2023-03-06T10:54:39.630Z,7.40
2023-03-06T10:57:32.359Z,6.63
2023-03-06T11:00:06.538Z,7.22
2023-03-06T11:02:37.244Z,6.50
2023-03-06T11:05:06.242Z,6.38
2023-03-06T11:07:34.779Z,7.20
2023-03-06T11:10:20.204Z,6.60
2023-03-06T11:13:02.845Z,6.53
2023-03-06T11:15:30.106Z,7.45
2023-03-06T11:18:04.490Z,6.18
2023-03-06T11:20:52.337Z,5.75
2023-03-06T11:23:19.426Z,7.32
2023-03-06T11:25:48.613Z,4.05
2023-03-06T11:28:27.316Z,6.88
2023-03-06T11:30:56.883Z,7.30
2023-03-06T11:33:49.577Z,8.77
2023-03-06T11:36:30.675Z,8.13
2023-03-06T11:38:57.162Z,7.45
2023-03-06T11:41:33.600Z,8.35
2023-03-06T11:44:19.940Z,8.85
2023-03-06T11:47:11.177Z,4.57
2023-03-06T11:49:45.546Z,7.22
2023-03-06T11:52:23.080Z,9.57
2023-03-06T11:54:55.384Z,8.68
2023-03-06T11:57:39.421Z,6.93
2023-03-06T12:00:28.531Z,6.85
2023-03-06T12:02:54.991Z,7.75
2023-03-06T12:05:45.841Z,7.28
2023-03-06T12:08:31.416Z,7.25
2023-03-06T12:11:05.219Z,6.60
2023-03-06T12:13:53.703Z,5.72
2023-03-06T12:16:51.776Z,7.05
2023-03-06T12:19:47.579Z,5.10
2023-03-06T12:22:57.898Z,4.15
2023-03-06T12:25:34.677Z,5.25
2023-03-06T12:28:07.122Z,3.47
2023-03-06T12:30:48.771Z,3.30
2023-03-06T12:33:40.822Z,4.43
2023-03-06T12:36:38.980Z,4.57
2023-03-06T12:39:26.188Z,4.03
2023-03-06T12:41:59.178Z,3.83
2023-03-06T12:45:04.887Z,2.67
2023-03-06T12:47:38.728Z,3.67
2023-03-06T12:50:17.942Z,3.70
2023-03-06T12:52:45.759Z,2.70
2023-03-06T12:55:16.770Z,1.98
2023-03-06T12:57:43.433Z,1.92
2023-03-06T13:00:34.188Z,2.20
2023-03-06T13:03:14.688Z,3.08
2023-03-06T13:05:50.212Z,2.22
2023-03-06T13:08:36.304Z,3.67
2023-03-06T13:11:40.082Z,4.40
2023-03-06T13:14:35.844Z,3.13
2023-03-06T13:17:36.593Z,3.97
2023-03-06T13:20:15.644Z,2.58
2023-03-06T13:22:44.266Z,4.07
2023-03-06T13:25:16.967Z,4.18
2023-03-06T13:27:53.331Z,4.78
2023-03-06T13:30:39.213Z,3.95
2023-03-06T13:33:25.765Z,5.53
2023-03-06T13:35:55.762Z,6.30
2023-03-06T13:38:33.673Z,5.68
2023-03-06T13:41:24.982Z,6.05
2023-03-06T13:43:56.364Z,6.43
2023-03-06T13:46:35.786Z,7.70
2023-03-06T13:49:08.681Z,8.27
2023-03-06T13:51:36.573Z,5.47
2023-03-06T13:54:20.890Z,8.50
2023-03-06T13:57:03.699Z,7.40
2023-03-06T14:00:08.121Z,8.63
2023-03-06T14:03:01.036Z,8.30
2023-03-06T14:05:53.669Z,8.07
2023-03-06T14:08:25.611Z,8.50
2023-03-06T14:11:20.410Z,6.65
2023-03-06T14:13:52.125Z,6.43
2023-03-06T14:16:29.095Z,8.57
2023-03-06T14:18:59.909Z,7.15
2023-03-06T14:21:45.396Z,6.70
2023-03-06T14:24:16.956Z,8.65
2023-03-06T14:26:49.611Z,6.28
2023-03-06T14:29:24.290Z,7.90
2023-03-06T14:31:58.624Z,7.95
2023-03-06T14:34:40.105Z,8.02
2023-03-06T14:37:18.812Z,6.90
2023-03-06T14:39:46.780Z,8.23
2023-03-06T14:42:20.303Z,8.00
2023-03-06T14:44:48.447Z,9.20
2023-03-06T14:47:29.834Z,7.95
2023-03-06T14:50:28.888Z,8.07
2023-03-06T14:53:04.355Z,5.55
2023-03-06T14:55:35.011Z,8.00
2023-03-06T14:58:16.209Z,8.63
2023-03-06T15:00:50.119Z,7.47
2023-03-06T15:03:20.550Z,7.20
2023-03-06T15:05:48.197Z,6.80
2023-03-06T15:08:22.012Z,5.57
2023-03-06T15:11:00.331Z,7.47
2023-03-06T15:13:29.562Z,7.30
2023-03-06T15:16:04.369Z,4.72
2023-03-06T15:18:39.704Z,6.20
2023-03-06T15:21:07.884Z,7.00
2023-03-06T15:23:43.853Z,6.85
2023-03-06T15:26:36.981Z,7.82
2023-03-06T15:29:10.625Z,9.50
2023-03-06T15:31:45.754Z,10.00
2023-03-06T15:34:12.290Z,9.30
2023-03-06T15:36:39.705Z,8.18
2023-03-06T15:39:35.838Z,10.27
2023-03-06T15:42:16.810Z,8.95
2023-03-06T15:44:46.587Z,9.73
2023-03-06T15:47:13.107Z,8.93
2023-03-06T15:49:40.222Z,9.07
2023-03-06T15:52:07.576Z,9.18
2023-03-06T15:54:34.156Z,8.63
2023-03-06T15:57:03.242Z,8.40
2023-03-06T16:02:12.626Z,9.48
2023-03-06T16:04:39.337Z,8.85
2023-03-06T16:07:06.182Z,9.02
2023-03-06T16:09:32.872Z,8.45
2023-03-06T16:11:59.511Z,9.30
2023-03-06T16:14:26.216Z,9.15
2023-03-06T16:16:54.283Z,9.52
2023-03-06T16:19:27.819Z,9.95
2023-03-06T16:21:55.793Z,9.13
2023-03-06T16:24:23.180Z,9.43
2023-03-06T16:26:53.024Z,9.07
2023-03-06T16:29:22.335Z,8.82
2023-03-06T16:31:49.028Z,8.27
2023-03-06T16:34:35.863Z,8.77
2023-03-06T16:37:02.447Z,8.02
2023-03-06T16:39:28.973Z,7.63
2023-03-06T16:41:55.519Z,7.90
2023-03-06T16:44:22.236Z,8.43
2023-03-06T16:46:50.120Z,9.13
2023-03-06T16:49:20.099Z,8.77
2023-03-06T16:51:47.080Z,8.52
2023-03-06T16:54:13.934Z,8.65
2023-03-06T16:56:40.620Z,8.45
2023-03-06T16:59:07.270Z,8.45
2023-03-06T17:01:34.128Z,8.82
2023-03-06T17:04:01.000Z,9.20
2023-03-06T17:06:28.418Z,8.48
2023-03-06T17:08:55.011Z,8.68
2023-03-06T17:11:21.667Z,8.57
2023-03-06T17:13:48.705Z,8.25
2023-03-06T17:16:16.528Z,8.82
2023-03-06T17:18:45.520Z,8.65
2023-03-06T17:21:15.677Z,8.23
2023-03-06T17:23:42.870Z,9.25
2023-03-06T17:26:15.295Z,9.60
2023-03-06T17:28:42.545Z,8.90
2023-03-06T17:31:19.721Z,9.43
2023-03-06T17:33:46.914Z,9.13
2023-03-06T17:36:14.641Z,8.30
2023-03-06T17:38:42.120Z,8.70
2023-03-06T17:41:10.198Z,8.70
2023-03-06T17:43:37.959Z,8.95
2023-03-06T17:46:06.729Z,9.82
2023-03-06T17:48:33.681Z,8.27
2023-03-06T17:51:00.414Z,8.50
2023-03-06T17:53:28.058Z,6.82
2023-03-06T17:55:55.921Z,8.48
2023-03-06T17:58:22.554Z,8.13
2023-03-06T18:00:49.300Z,8.38
2023-03-06T18:03:17.287Z,8.48
2023-03-06T18:05:44.047Z,8.45
2023-03-06T18:08:10.821Z,8.20
2023-03-06T18:10:41.711Z,7.00
2023-03-06T18:13:10.034Z,9.90
2023-03-06T18:15:41.180Z,8.07
2023-03-06T18:18:08.466Z,8.10
2023-03-06T18:20:40.299Z,6.13
2023-03-06T18:23:06.971Z,9.10
2023-03-06T18:25:33.693Z,7.75
2023-03-06T18:28:00.491Z,9.45
2023-03-06T18:30:27.535Z,9.75
2023-03-06T18:32:54.863Z,8.73
2023-03-06T18:35:21.770Z,8.93
2023-03-06T18:37:48.450Z,5.78
2023-03-06T18:40:15.294Z,8.50
2023-03-06T18:42:42.122Z,7.85
2023-03-06T18:45:09.577Z,9.02
2023-03-06T18:47:36.235Z,8.60
2023-03-06T18:50:03.225Z,9.23
2023-03-06T18:52:30.046Z,8.75
2023-03-06T18:54:56.723Z,8.30
2023-03-06T18:57:23.475Z,9.05
2023-03-06T18:59:50.131Z,5.78
2023-03-06T19:02:17.158Z,9.52
2023-03-06T19:04:43.794Z,8.85
2023-03-06T19:07:10.356Z,9.13
2023-03-06T19:09:36.909Z,9.82
2023-03-06T19:12:03.672Z,4.28
2023-03-06T19:14:30.250Z,8.57
2023-03-06T19:16:57.020Z,9.32
2023-03-06T19:19:26.955Z,8.93
2023-03-06T19:21:53.877Z,8.85
2023-03-06T19:24:20.443Z,6.90
2023-03-06T19:26:47.093Z,7.78
2023-03-06T19:29:13.756Z,7.18
2023-03-06T19:31:41.560Z,8.38
2023-03-06T19:34:08.495Z,9.05
2023-03-06T19:36:35.229Z,7.60
2023-03-06T19:39:03.905Z,6.10
2023-03-06T19:41:30.684Z,8.85
2023-03-06T19:43:59.207Z,7.30
2023-03-06T19:46:27.230Z,8.18
2023-03-06T19:48:56.167Z,6.13
2023-03-06T19:51:23.162Z,8.30
2023-03-06T19:53:49.854Z,7.70
2023-03-06T19:56:19.924Z,8.02
2023-03-06T19:58:46.548Z,8.65
2023-03-06T20:01:18.084Z,6.53
2023-03-06T20:03:45.779Z,6.82
2023-03-06T20:06:18.575Z,8.35
2023-03-06T20:08:48.266Z,8.15
2023-03-06T20:11:33.421Z,6.70
2023-03-06T20:14:01.754Z,8.02
2023-03-06T20:16:29.156Z,7.97
2023-03-06T20:18:59.147Z,8.77
2023-03-06T20:21:27.614Z,5.72
2023-03-06T20:23:56.935Z,8.98
2023-03-06T20:28:50.708Z,6.45
2023-03-06T20:31:24.224Z,8.18
2023-03-06T20:33:52.968Z,6.72
2023-03-06T20:36:31.992Z,8.95
2023-03-06T20:39:06.103Z,6.25
2023-03-06T20:41:33.052Z,9.07
2023-03-06T20:44:01.582Z,8.25
2023-03-06T20:46:28.771Z,8.52
2023-03-06T20:48:56.066Z,8.50
2023-03-06T20:51:32.224Z,8.68
2023-03-06T20:54:00.854Z,9.75
2023-03-06T20:56:29.728Z,7.97
2023-03-06T20:58:57.013Z,8.77
2023-03-06T21:01:29.940Z,8.45
2023-03-06T21:03:58.095Z,6.18
2023-03-06T21:06:26.380Z,7.53
2023-03-06T21:08:52.936Z,7.88
2023-03-06T21:11:19.583Z,8.70
2023-03-06T21:13:46.253Z,9.40
2023-03-06T21:16:16.159Z,8.40
2023-03-06T21:18:43.326Z,7.90
2023-03-06T21:21:13.248Z,8.25
2023-03-06T21:23:40.032Z,9.00
2023-03-06T21:26:06.834Z,10.18
2023-03-06T21:28:34.130Z,9.02
2023-03-06T21:31:02.076Z,9.90
2023-03-06T21:33:28.898Z,7.10
2023-03-06T21:35:55.724Z,10.40
2023-03-06T21:38:22.305Z,9.77
2023-03-06T21:40:48.879Z,9.95
2023-03-06T21:43:17.452Z,9.73
2023-03-06T21:45:46.134Z,10.38
2023-03-06T21:48:13.965Z,7.05
2023-03-06T21:50:41.167Z,8.43
2023-03-06T21:53:08.612Z,9.32
2023-03-06T21:55:40.431Z,8.85
2023-03-06T21:58:07.242Z,8.35
2023-03-06T22:00:36.278Z,9.02
2023-03-06T22:03:04.737Z,8.40
2023-03-06T22:05:34.490Z,8.90
2023-03-06T22:08:01.180Z,9.68
2023-03-06T22:10:28.165Z,8.93
2023-03-06T22:12:54.670Z,9.45
2023-03-06T22:15:21.916Z,9.13
2023-03-06T22:17:48.728Z,9.48
2023-03-06T22:20:15.739Z,9.75
2023-03-06T22:22:43.674Z,9.38
2023-03-06T22:25:11.909Z,10.20
2023-03-06T22:27:38.550Z,9.73
2023-03-06T22:30:05.657Z,9.43
2023-03-06T22:32:32.275Z,10.20
2023-03-06T22:34:58.798Z,10.57
2023-03-06T22:37:25.283Z,10.05
2023-03-06T22:39:51.815Z,10.20
2023-03-06T22:42:18.332Z,9.30
2023-03-06T22:44:46.249Z,6.82
2023-03-06T22:47:12.750Z,8.77
2023-03-06T22:49:39.305Z,9.85
2023-03-06T22:52:06.039Z,7.80
2023-03-06T22:54:32.608Z,7.57
2023-03-06T22:56:59.087Z,7.28
2023-03-06T22:59:25.605Z,8.82
2023-03-06T23:01:52.111Z,8.63
2023-03-06T23:04:18.635Z,7.68
2023-03-06T23:06:46.919Z,8.10
2023-03-06T23:09:20.429Z,7.32
2023-03-06T23:11:47.727Z,7.00
2023-03-06T23:14:15.565Z,7.22
2023-03-06T23:16:42.050Z,6.90
2023-03-06T23:19:08.610Z,6.30
2023-03-06T23:21:35.406Z,5.60
2023-03-06T23:24:02.238Z,6.60
2023-03-06T23:26:30.599Z,6.50
2023-03-06T23:28:58.459Z,4.63
2023-03-06T23:31:30.702Z,5.65
2023-03-06T23:33:59.272Z,6.55
2023-03-06T23:36:26.604Z,5.00
2023-03-06T23:38:53.191Z,5.22
2023-03-06T23:41:21.252Z,5.57
2023-03-06T23:43:49.656Z,4.55
2023-03-06T23:46:17.297Z,5.63
2023-03-06T23:48:44.402Z,3.20
2023-03-06T23:51:17.445Z,4.40
2023-03-06T23:53:45.769Z,3.88
2023-03-06T23:56:12.994Z,4.18
2023-03-06T23:58:39.637Z,4.53
